Time;durP1;ratioP1;P1;durP2;ratioP2;P2;SDS_P1;SDS_P2;PMS_P1;PMS_P2;Temp;Humidity;BMP_temperature;BMP_pressure;BME280_temperature;BME280_humidity;BME280_pressure;Samples;Min_cycle;Max_cycle;Signal;HPM_P1;HPM_P2
2022/12/14 00:00:53;;;;;;;7.38;4.53;;;2.80;99.90;;;;;;5088590;28;20103;-76
2022/12/14 00:03:19;;;;;;;7.78;4.50;;;2.80;99.90;;;;;;5099082;28;20055;-76
2022/12/14 00:05:45;;;;;;;7.60;4.25;;;2.70;99.90;;;;;;5099143;28;20036;-76
2022/12/14 00:08:12;;;;;;;7.50;4.50;;;2.80;99.90;;;;;;5099322;28;20024;-76
2022/12/14 00:10:39;;;;;;;8.02;4.43;;;2.80;99.90;;;;;;5080866;28;20467;-76
2022/12/14 00:13:06;;;;;;;8.63;4.68;;;2.80;99.90;;;;;;5098973;28;20036;-77
2022/12/14 00:15:32;;;;;;;7.95;4.30;;;2.90;99.90;;;;;;5099191;28;20028;-77
2022/12/14 00:17:58;;;;;;;6.75;4.55;;;2.90;99.90;;;;;;5080903;28;20032;-76
2022/12/14 00:20:26;;;;;;;6.30;3.75;;;2.90;99.90;;;;;;5098941;28;20043;-77
2022/12/14 00:22:52;;;;;;;8.02;4.60;;;2.90;99.90;;;;;;5080670;28;20028;-77
2022/12/14 00:25:18;;;;;;;7.85;4.45;;;3.00;99.90;;;;;;5098912;28;20027;-76
2022/12/14 00:27:45;;;;;;;6.82;3.97;;;2.90;99.90;;;;;;5098847;28;20024;-76
2022/12/14 00:30:12;;;;;;;6.18;3.58;;;2.80;99.90;;;;;;5098802;28;20116;-77
2022/12/14 00:32:39;;;;;;;7.97;4.45;;;2.80;99.90;;;;;;5079790;28;20119;-77
2022/12/14 00:35:07;;;;;;;6.32;4.13;;;2.90;99.90;;;;;;5098806;28;20024;-76
2022/12/14 00:37:33;;;;;;;7.65;4.45;;;2.90;99.90;;;;;;5098590;28;20024;-76
2022/12/14 00:39:58;;;;;;;7.82;3.72;;;2.90;99.90;;;;;;5098783;28;20084;-76
2022/12/14 00:42:24;;;;;;;7.65;4.57;;;2.90;99.90;;;;;;5098492;28;20043;-77
2022/12/14 00:44:49;;;;;;;6.95;3.80;;;2.90;99.90;;;;;;5080370;28;20024;-77
2022/12/14 00:47:15;;;;;;;8.25;4.20;;;2.90;99.90;;;;;;5079391;28;20028;-77
2022/12/14 00:49:41;;;;;;;6.25;3.70;;;3.00;99.90;;;;;;5098555;28;20033;-77
2022/12/14 00:52:06;;;;;;;6.75;4.07;;;2.90;99.90;;;;;;5097981;28;20028;-77
2022/12/14 00:54:32;;;;;;;7.22;4.05;;;2.90;99.90;;;;;;5098102;28;20369;-77
2022/12/14 00:56:58;;;;;;;6.63;4.20;;;2.90;99.90;;;;;;5097858;28;20549;-77
2022/12/14 00:59:23;;;;;;;8.70;4.30;;;2.90;99.90;;;;;;5097891;28;20077;-77
2022/12/14 01:01:49;;;;;;;5.65;3.63;;;2.80;99.90;;;;;;5098048;28;20551;-77
2022/12/14 01:04:18;;;;;;;6.88;4.20;;;2.90;99.90;;;;;;5098196;28;20028;-76
2022/12/14 01:06:49;;;;;;;7.32;4.47;;;2.90;99.90;;;;;;5098056;28;20630;-76
2022/12/14 01:09:16;;;;;;;5.68;3.40;;;2.90;99.90;;;;;;5097994;28;20035;-76
2022/12/14 01:11:42;;;;;;;5.90;3.90;;;2.90;99.90;;;;;;5097978;28;20023;-76
2022/12/14 01:14:10;;;;;;;7.10;4.00;;;2.90;99.90;;;;;;5079686;28;20077;-76
2022/12/14 01:16:36;;;;;;;5.72;3.95;;;2.90;99.90;;;;;;5079528;28;20052;-76
2022/12/14 01:19:02;;;;;;;6.75;3.75;;;2.90;99.90;;;;;;5097853;28;20050;-77
2022/12/14 01:21:28;;;;;;;6.80;3.90;;;2.80;99.90;;;;;;5079783;28;20024;-76
2022/12/14 01:23:56;;;;;;;7.00;4.00;;;2.90;99.90;;;;;;5097693;28;20774;-76
2022/12/14 01:26:23;;;;;;;5.25;3.15;;;2.90;99.90;;;;;;5097388;28;20024;-76
2022/12/14 01:28:51;;;;;;;5.25;2.80;;;2.90;99.90;;;;;;5079373;28;20403;-76
2022/12/14 01:31:20;;;;;;;5.45;2.95;;;3.00;99.90;;;;;;5079452;28;20031;-76
2022/12/14 01:33:47;;;;;;;4.60;3.15;;;3.00;99.90;;;;;;5097770;28;20046;-76
2022/12/14 01:36:21;;;;;;;4.28;2.90;;;3.00;99.90;;;;;;5097217;28;20044;-76
2022/12/14 01:38:52;;;;;;;5.07;3.10;;;3.10;99.90;;;;;;5086057;28;20028;-76
2022/12/14 01:41:23;;;;;;;3.85;2.72;;;3.10;99.90;;;;;;5097482;28;20024;-77
2022/12/14 01:43:58;;;;;;;5.80;3.55;;;3.00;99.90;;;;;;5097942;28;20067;-77
2022/12/14 01:46:46;;;;;;;5.53;3.63;;;3.00;99.90;;;;;;5079281;28;20028;-76
2022/12/14 01:49:36;;;;;;;4.75;2.80;;;3.00;99.90;;;;;;5079348;28;20032;-76
2022/12/14 01:52:10;;;;;;;5.30;3.30;;;3.00;99.90;;;;;;5079309;28;20476;-77
2022/12/14 01:54:41;;;;;;;4.18;2.88;;;3.10;99.90;;;;;;5097337;28;20107;-77
2022/12/14 01:57:06;;;;;;;4.78;3.05;;;3.00;99.90;;;;;;5079532;28;20024;-77
2022/12/14 01:59:38;;;;;;;5.07;2.75;;;3.00;99.90;;;;;;5096839;28;20040;-77
2022/12/14 02:02:06;;;;;;;4.60;3.03;;;3.10;99.90;;;;;;5097031;28;20388;-77
2022/12/14 02:04:38;;;;;;;4.82;2.90;;;3.10;99.90;;;;;;5097323;28;20020;-76
2022/12/14 02:07:04;;;;;;;4.78;2.78;;;3.00;99.90;;;;;;5100868;28;20023;-76
2022/12/14 02:09:33;;;;;;;4.80;3.08;;;3.00;99.90;;;;;;5104171;28;20024;-77
2022/12/14 02:12:24;;;;;;;3.92;2.45;;;3.00;99.90;;;;;;5085970;28;20024;-77
2022/12/14 02:14:51;;;;;;;5.10;3.35;;;3.00;99.90;;;;;;5085778;28;20024;-77
2022/12/14 02:17:19;;;;;;;5.35;2.90;;;3.00;99.90;;;;;;5103738;28;20020;-76
2022/12/14 02:19:48;;;;;;;5.28;3.45;;;3.00;99.90;;;;;;5085909;28;20063;-77
2022/12/14 02:22:39;;;;;;;4.43;2.80;;;3.00;99.90;;;;;;5085634;28;20028;-77
2022/12/14 02:25:19;;;;;;;4.82;2.97;;;3.00;99.90;;;;;;5103752;28;20073;-77
2022/12/14 02:28:03;;;;;;;4.50;3.13;;;3.10;99.90;;;;;;5085507;28;20368;-77
2022/12/14 02:30:33;;;;;;;;;;;3.10;99.90;;;;;;5085815;28;20020;-77
2022/12/14 02:33:31;;;;;;;3.90;2.67;;;3.10;99.90;;;;;;5103714;28;19911;-77
2022/12/14 02:36:22;;;;;;;3.80;2.50;;;3.10;99.90;;;;;;5031043;28;20111;-77
2022/12/14 02:39:10;;;;;;;4.40;2.50;;;3.10;99.90;;;;;;5103559;28;20040;-77
2022/12/14 02:41:54;;;;;;;4.25;2.65;;;3.20;99.90;;;;;;5103696;28;20024;-77
2022/12/14 02:45:08;;;;;;;3.70;2.80;;;3.20;99.90;;;;;;5103356;28;20028;-77
2022/12/14 02:47:47;;;;;;;3.75;2.35;;;3.20;99.90;;;;;;5094313;28;20395;-77
2022/12/14 02:50:27;;;;;;;4.93;2.83;;;3.20;99.90;;;;;;5103710;28;20027;-77
2022/12/14 02:53:11;;;;;;;4.45;2.63;;;3.20;99.90;;;;;;5085659;28;20078;-77
2022/12/14 02:55:48;;;;;;;4.40;2.65;;;3.30;99.90;;;;;;5103342;28;20028;-77
2022/12/14 02:58:33;;;;;;;3.88;2.40;;;3.30;99.90;;;;;;5103020;28;20032;-77
2022/12/14 03:01:00;;;;;;;3.63;2.47;;;3.30;99.90;;;;;;5085092;28;20028;-77
2022/12/14 03:03:25;;;;;;;4.13;2.90;;;3.30;99.90;;;;;;5085106;28;20028;-77
2022/12/14 03:06:03;;;;;;;4.80;2.90;;;3.30;99.90;;;;;;5103495;28;20028;-77
2022/12/14 03:08:33;;;;;;;4.40;2.92;;;3.30;99.90;;;;;;5085270;28;20108;-79
2022/12/14 03:11:04;;;;;;;4.10;2.80;;;3.30;99.90;;;;;;5103256;28;20024;-79
2022/12/14 03:13:54;;;;;;;4.90;3.08;;;3.30;99.90;;;;;;5085223;28;20028;-76
2022/12/14 03:16:33;;;;;;;4.32;2.80;;;3.30;99.90;;;;;;5102729;28;20066;-77
2022/12/14 03:19:17;;;;;;;3.83;2.83;;;3.30;99.90;;;;;;5100474;28;20099;-77
2022/12/14 03:21:48;;;;;;;4.55;2.58;;;3.30;99.90;;;;;;5082238;28;20024;-77
2022/12/14 03:24:24;;;;;;;3.85;2.58;;;3.30;99.90;;;;;;5100139;28;20043;-78
2022/12/14 03:26:58;;;;;;;5.00;2.53;;;3.30;99.90;;;;;;5100336;28;20107;-78
2022/12/14 03:29:37;;;;;;;4.60;2.63;;;3.20;99.90;;;;;;5100128;28;20028;-79
2022/12/14 03:32:08;;;;;;;4.35;2.70;;;3.30;99.90;;;;;;5099670;28;20020;-77
2022/12/14 03:34:39;;;;;;;3.35;2.20;;;3.20;99.90;;;;;;5099969;28;20418;-77
2022/12/14 03:37:46;;;;;;;4.10;2.60;;;3.30;99.90;;;;;;5082046;28;20024;-77
2022/12/14 03:40:13;;;;;;;4.20;2.38;;;3.30;99.90;;;;;;5016906;28;20432;-77
2022/12/14 03:42:52;;;;;;;3.47;2.40;;;3.30;99.90;;;;;;5086937;28;20036;-77
2022/12/14 03:45:28;;;;;;;4.38;2.63;;;3.30;99.90;;;;;;5099569;28;20399;-77
2022/12/14 03:48:15;;;;;;;4.93;2.75;;;3.30;99.90;;;;;;5081621;28;20073;-78
2022/12/14 03:50:48;;;;;;;4.53;2.63;;;3.30;99.90;;;;;;5099845;28;20434;-79
2022/12/14 03:53:30;;;;;;;4.50;2.83;;;3.30;99.90;;;;;;5099368;28;20027;-76
2022/12/14 03:56:23;;;;;;;4.63;2.90;;;3.30;99.90;;;;;;5099779;28;20028;-76
2022/12/14 03:59:08;;;;;;;5.05;2.90;;;3.20;99.90;;;;;;5099466;28;20143;-76
2022/12/14 04:01:51;;;;;;;4.38;2.53;;;3.20;99.90;;;;;;5099154;28;20422;-77
2022/12/14 04:04:25;;;;;;;5.22;2.90;;;3.20;99.90;;;;;;5099375;28;20472;-77
2022/12/14 04:07:15;;;;;;;5.55;2.60;;;3.20;99.90;;;;;;5081277;28;20559;-77
2022/12/14 04:09:47;;;;;;;3.97;2.30;;;3.20;99.90;;;;;;5099015;28;20024;-77
2022/12/14 04:21:29;;;;;;;4.38;2.42;;;3.20;99.90;;;;;;5111969;28;20038;-77
2022/12/14 04:27:26;;;;;;;4.15;2.25;;;3.20;99.90;;;;;;5098999;28;20027;-77
2022/12/14 04:29:55;;;;;;;4.00;2.53;;;3.20;99.90;;;;;;5048523;28;20039;-77
2022/12/14 04:32:50;;;;;;;4.90;2.70;;;3.20;99.90;;;;;;5080613;28;20024;-77
2022/12/14 04:35:27;;;;;;;3.47;2.17;;;3.10;99.90;;;;;;5080654;28;20369;-77
2022/12/14 04:38:15;;;;;;;4.25;2.58;;;3.10;99.90;;;;;;5099706;28;20058;-76
2022/12/14 04:40:46;;;;;;;3.88;2.58;;;3.10;99.90;;;;;;5098637;28;20028;-76
2022/12/14 04:43:16;;;;;;;4.88;2.88;;;3.10;99.90;;;;;;5080816;28;20031;-76
2022/12/14 04:46:14;;;;;;;3.97;2.50;;;3.10;99.90;;;;;;5098587;28;20054;-76
2022/12/14 04:49:20;;;;;;;5.60;3.00;;;3.10;99.90;;;;;;5097845;28;20411;-76
2022/12/14 04:51:47;;;;;;;4.10;2.60;;;3.10;99.90;;;;;;5080116;28;20028;-76
2022/12/14 04:54:33;;;;;;;4.45;2.70;;;3.10;99.90;;;;;;5080272;28;20573;-76
2022/12/14 04:57:05;;;;;;;3.55;2.30;;;3.10;99.90;;;;;;5080362;28;20511;-76
2022/12/14 04:59:31;;;;;;;3.17;2.30;;;3.10;99.90;;;;;;5098047;28;20052;-76
2022/12/14 05:02:23;;;;;;;4.97;2.80;;;3.10;99.90;;;;;;5097876;28;20035;-76
2022/12/14 05:05:07;;;;;;;4.75;2.47;;;3.00;99.90;;;;;;5042288;28;20047;-77
2022/12/14 05:07:43;;;;;;;3.58;2.35;;;3.00;99.90;;;;;;5080369;28;20028;-76
2022/12/14 05:10:20;;;;;;;3.88;2.85;;;2.90;99.90;;;;;;5097951;28;20032;-77
2022/12/14 05:13:06;;;;;;;3.53;2.58;;;2.90;99.90;;;;;;5079988;28;20031;-77
2022/12/14 05:15:45;;;;;;;4.18;2.72;;;2.90;99.90;;;;;;5082265;28;20098;-77
2022/12/14 05:18:11;;;;;;;4.82;3.08;;;2.90;99.90;;;;;;5079682;28;20032;-77
2022/12/14 05:20:37;;;;;;;4.65;3.28;;;3.00;99.90;;;;;;5098149;28;20116;-77
2022/12/14 05:23:03;;;;;;;4.18;2.80;;;2.90;99.90;;;;;;5098141;28;20512;-77
2022/12/14 05:25:28;;;;;;;4.68;2.35;;;2.90;99.90;;;;;;5097657;28;20533;-77
2022/12/14 05:27:54;;;;;;;4.07;2.80;;;2.90;99.90;;;;;;5097932;28;20016;-77
2022/12/14 05:30:20;;;;;;;4.72;3.15;;;2.90;99.90;;;;;;5079228;28;20107;-77
2022/12/14 05:32:45;;;;;;;3.90;2.30;;;2.90;99.90;;;;;;5097666;28;20024;-77
2022/12/14 05:35:12;;;;;;;4.82;2.67;;;3.00;99.90;;;;;;5079881;28;20034;-77
2022/12/14 05:37:38;;;;;;;3.90;2.33;;;3.00;99.90;;;;;;5106480;28;20403;-76
2022/12/14 05:40:05;;;;;;;3.35;2.65;;;3.00;99.90;;;;;;5098433;28;20028;-77
2022/12/14 05:42:31;;;;;;;3.85;2.35;;;2.90;99.90;;;;;;5096937;28;20054;-77
2022/12/14 05:44:57;;;;;;;4.20;2.80;;;3.00;99.90;;;;;;5097373;28;20032;-76
2022/12/14 05:47:23;;;;;;;4.28;2.88;;;3.00;99.90;;;;;;5097399;28;20032;-76
2022/12/14 05:49:48;;;;;;;3.53;2.33;;;3.00;99.90;;;;;;5079599;28;20073;-76
2022/12/14 05:52:14;;;;;;;3.17;2.38;;;3.00;99.90;;;;;;5097337;28;20075;-76
2022/12/14 05:54:40;;;;;;;3.30;2.22;;;2.90;99.90;;;;;;5097390;28;20032;-76
2022/12/14 05:57:05;;;;;;;3.92;2.55;;;3.00;99.90;;;;;;5091707;28;20031;-76
2022/12/14 05:59:32;;;;;;;3.63;2.08;;;3.00;99.90;;;;;;5097039;28;20067;-77
2022/12/14 06:01:58;;;;;;;3.38;2.20;;;2.90;99.90;;;;;;5096554;28;20039;-76
2022/12/14 06:04:24;;;;;;;3.45;2.05;;;2.90;99.90;;;;;;5097383;28;20028;-76
2022/12/14 06:06:50;;;;;;;3.83;2.67;;;2.90;99.90;;;;;;5096857;28;20016;-76
2022/12/14 06:09:17;;;;;;;3.65;2.25;;;2.90;99.90;;;;;;5078512;28;20384;-76
2022/12/14 06:11:44;;;;;;;3.40;2.13;;;2.90;99.90;;;;;;5096940;28;20082;-77
2022/12/14 06:14:10;;;;;;;3.78;2.30;;;2.90;99.90;;;;;;5097382;28;20028;-76
2022/12/14 06:16:40;;;;;;;3.33;2.67;;;2.90;99.90;;;;;;5096882;28;20027;-76
2022/12/14 06:19:06;;;;;;;2.95;2.17;;;2.90;99.90;;;;;;5097131;28;20024;-76
2022/12/14 06:21:34;;;;;;;3.65;2.88;;;2.90;99.90;;;;;;5097370;28;20027;-77
2022/12/14 06:24:01;;;;;;;3.83;2.33;;;2.90;99.90;;;;;;5078991;28;20035;-76
2022/12/14 06:26:28;;;;;;;4.65;2.50;;;2.90;99.90;;;;;;5097277;28;20027;-76
2022/12/14 06:28:55;;;;;;;3.45;2.53;;;2.90;99.90;;;;;;5097172;28;20471;-76
2022/12/14 06:31:26;;;;;;;5.22;3.10;;;3.00;99.90;;;;;;5096825;28;20082;-76
2022/12/14 06:33:53;;;;;;;3.78;2.60;;;2.90;99.90;;;;;;5078903;28;20031;-76
2022/12/14 06:36:20;;;;;;;4.03;2.67;;;3.00;99.90;;;;;;5078954;28;20021;-76
2022/12/14 06:38:45;;;;;;;3.55;2.60;;;2.90;99.90;;;;;;5079207;28;20529;-76
2022/12/14 06:41:11;;;;;;;5.30;2.70;;;3.00;99.90;;;;;;5079101;28;20024;-76
2022/12/14 06:43:37;;;;;;;4.63;2.65;;;3.00;99.90;;;;;;5078968;28;20027;-75
2022/12/14 06:46:10;;;;;;;5.63;2.97;;;3.10;99.90;;;;;;5078113;28;20035;-76
2022/12/14 06:48:36;;;;;;;4.20;2.60;;;3.10;99.90;;;;;;5078742;28;20025;-76
2022/12/14 06:51:03;;;;;;;4.40;3.05;;;3.10;99.90;;;;;;5078573;28;20043;-76
2022/12/14 06:53:29;;;;;;;4.45;2.72;;;3.00;99.90;;;;;;5078424;28;20016;-76
2022/12/14 06:56:09;;;;;;;5.07;3.03;;;3.10;99.90;;;;;;5082482;28;20032;-77
2022/12/14 06:58:35;;;;;;;3.38;2.58;;;3.10;99.90;;;;;;5100585;28;20115;-76
2022/12/14 07:01:06;;;;;;;3.88;2.30;;;3.10;99.90;;;;;;5100519;28;20056;-77
2022/12/14 07:03:32;;;;;;;4.68;3.00;;;3.10;99.90;;;;;;5082288;28;20509;-76
2022/12/14 07:05:59;;;;;;;3.65;2.47;;;3.20;99.90;;;;;;5100831;28;20020;-77
2022/12/14 07:08:26;;;;;;;3.58;2.65;;;3.10;99.90;;;;;;5100428;28;20081;-77
2022/12/14 07:10:52;;;;;;;3.53;2.42;;;3.20;99.90;;;;;;5100573;28;20069;-77
2022/12/14 07:13:18;;;;;;;6.35;3.10;;;3.20;99.90;;;;;;5082125;28;20535;-76
2022/12/14 07:15:51;;;;;;;4.68;2.92;;;3.20;99.90;;;;;;5100445;28;20407;-76
2022/12/14 07:18:16;;;;;;;4.25;2.55;;;3.10;99.90;;;;;;5100387;28;20062;-76
2022/12/14 07:20:43;;;;;;;4.05;2.65;;;3.10;99.90;;;;;;5100199;28;20028;-76
2022/12/14 07:23:09;;;;;;;3.63;2.67;;;3.20;99.90;;;;;;5100529;28;20479;-76
2022/12/14 07:25:35;;;;;;;4.63;2.60;;;3.10;99.90;;;;;;5100046;28;20028;-76
2022/12/14 07:28:01;;;;;;;4.20;2.70;;;3.10;99.90;;;;;;5100356;28;20088;-76
2022/12/14 07:30:27;;;;;;;4.40;2.75;;;3.10;99.90;;;;;;5081706;28;20054;-77
2022/12/14 07:32:53;;;;;;;5.65;3.30;;;3.10;99.90;;;;;;5098420;28;20032;-76
2022/12/14 07:35:18;;;;;;;5.03;2.92;;;3.10;99.90;;;;;;5099760;28;20035;-76
2022/12/14 07:37:44;;;;;;;5.53;2.70;;;3.10;99.90;;;;;;5100078;28;20392;-76
2022/12/14 07:40:10;;;;;;;4.72;3.00;;;3.20;99.90;;;;;;5099767;28;20137;-76
2022/12/14 07:42:35;;;;;;;3.65;2.22;;;3.20;99.90;;;;;;5099994;28;20028;-76
2022/12/14 07:45:01;;;;;;;4.00;2.65;;;3.20;99.90;;;;;;5099433;28;20116;-77
2022/12/14 07:47:30;;;;;;;4.05;2.80;;;3.20;99.90;;;;;;5081143;28;20365;-76
2022/12/14 07:49:55;;;;;;;5.25;3.35;;;3.10;99.90;;;;;;5081325;28;20024;-77
2022/12/14 07:52:21;;;;;;;4.40;3.20;;;3.10;99.90;;;;;;5099639;28;20555;-75
2022/12/14 07:54:47;;;;;;;5.15;3.78;;;3.10;99.90;;;;;;5081248;28;20168;-75
2022/12/14 07:57:13;;;;;;;7.00;3.65;;;3.10;99.90;;;;;;5099567;28;20028;-75
2022/12/14 07:59:38;;;;;;;4.75;2.78;;;3.10;99.90;;;;;;5098799;28;20136;-75
2022/12/14 08:02:04;;;;;;;5.53;3.20;;;3.10;99.90;;;;;;5099399;28;20031;-75
2022/12/14 08:04:32;;;;;;;4.57;3.05;;;3.10;99.90;;;;;;5080764;28;20174;-76
2022/12/14 08:06:58;;;;;;;6.10;3.58;;;3.10;99.90;;;;;;5098459;28;20052;-77
2022/12/14 08:09:24;;;;;;;5.20;3.53;;;3.20;99.90;;;;;;5077588;28;20058;-76
2022/12/14 08:11:49;;;;;;;5.82;3.63;;;3.10;99.90;;;;;;5098615;28;20444;-76
2022/12/14 08:14:17;;;;;;;6.47;3.92;;;3.20;99.90;;;;;;5098278;28;20052;-76
2022/12/14 08:16:44;;;;;;;4.75;3.10;;;3.10;99.90;;;;;;5096999;28;20020;-76
2022/12/14 08:19:11;;;;;;;5.80;3.80;;;3.20;99.90;;;;;;5098884;28;20053;-77
2022/12/14 08:21:36;;;;;;;5.40;3.47;;;3.10;99.90;;;;;;5098889;28;20028;-77
2022/12/14 08:24:02;;;;;;;5.40;3.90;;;3.10;99.90;;;;;;5098881;28;20031;-76
2022/12/14 08:26:28;;;;;;;5.35;3.47;;;3.10;99.90;;;;;;5080828;28;20021;-76
2022/12/14 08:28:55;;;;;;;4.65;2.95;;;3.10;99.90;;;;;;5099197;28;20103;-77
2022/12/14 08:31:22;;;;;;;5.95;3.25;;;3.20;99.90;;;;;;5098508;28;20472;-76
2022/12/14 08:33:49;;;;;;;4.78;3.28;;;3.20;99.90;;;;;;5098994;28;20024;-76
2022/12/14 08:36:18;;;;;;;5.80;3.33;;;3.20;99.90;;;;;;5098758;28;20369;-76
2022/12/14 08:38:44;;;;;;;6.38;3.38;;;3.20;99.90;;;;;;5080364;28;20024;-76
2022/12/14 08:41:12;;;;;;;5.78;3.58;;;3.30;99.90;;;;;;5080801;28;20020;-78
2022/12/14 08:43:39;;;;;;;5.22;3.40;;;3.30;99.90;;;;;;5098406;28;20020;-79
2022/12/14 08:46:06;;;;;;;4.55;3.22;;;3.30;99.90;;;;;;5098424;28;20024;-79
2022/12/14 08:48:32;;;;;;;4.90;3.13;;;3.30;99.90;;;;;;5080418;28;20017;-79
2022/12/14 08:51:01;;;;;;;4.18;2.95;;;3.40;99.90;;;;;;5098683;28;20027;-79
2022/12/14 08:53:27;;;;;;;3.85;2.95;;;3.40;99.90;;;;;;5098274;28;20502;-79
2022/12/14 08:55:53;;;;;;;5.50;3.15;;;3.40;99.90;;;;;;5096249;28;20031;-78
2022/12/14 08:58:18;;;;;;;6.90;3.60;;;3.40;99.90;;;;;;5096792;28;20031;-79
2022/12/14 09:00:44;;;;;;;4.78;3.40;;;3.40;99.90;;;;;;5079726;28;20422;-66
2022/12/14 09:03:10;;;;;;;6.40;3.45;;;3.40;99.90;;;;;;5100696;28;20016;-65
2022/12/14 09:05:37;;;;;;;5.78;3.00;;;3.50;99.90;;;;;;5105191;28;20076;-75
2022/12/14 09:08:03;;;;;;;5.88;3.33;;;3.50;99.90;;;;;;5096918;28;20016;-76
2022/12/14 09:10:29;;;;;;;4.82;3.50;;;3.50;99.90;;;;;;5105804;28;20015;-76
2022/12/14 09:12:55;;;;;;;4.88;3.45;;;3.60;99.90;;;;;;5097963;28;20362;-74
2022/12/14 09:15:20;;;;;;;4.55;3.20;;;3.60;99.90;;;;;;5078996;28;20623;-78
2022/12/14 09:17:48;;;;;;;4.93;3.10;;;3.60;99.90;;;;;;5076422;28;20024;-83
2022/12/14 09:20:14;;;;;;;5.53;3.45;;;3.60;99.90;;;;;;5085130;28;20020;-77
2022/12/14 09:22:40;;;;;;;5.85;3.60;;;3.60;99.90;;;;;;5096943;28;20039;-78
2022/12/14 09:25:07;;;;;;;5.45;3.47;;;3.60;99.90;;;;;;5096553;28;20032;-77
2022/12/14 09:27:32;;;;;;;5.47;3.42;;;3.60;99.90;;;;;;5076715;28;20691;-75
2022/12/14 09:29:58;;;;;;;4.78;3.20;;;3.60;99.90;;;;;;5077671;28;20034;-76
2022/12/14 09:32:24;;;;;;;5.07;3.00;;;3.60;99.90;;;;;;5096430;28;20361;-78
2022/12/14 09:34:51;;;;;;;4.55;3.03;;;3.60;99.90;;;;;;5096628;28;20028;-82
2022/12/14 09:37:17;;;;;;;4.60;2.72;;;3.60;99.90;;;;;;5097896;28;20024;-77
2022/12/14 09:39:42;;;;;;;4.65;3.05;;;3.50;99.90;;;;;;5079205;28;20035;-79
2022/12/14 09:42:46;;;;;;;6.22;3.72;;;3.60;99.90;;;;;;5096926;28;20038;-79
2022/12/14 09:45:16;;;;;;;4.40;3.40;;;3.60;99.90;;;;;;5063269;28;20071;-79
2022/12/14 09:48:10;;;;;;;4.72;3.03;;;3.60;99.90;;;;;;5077874;28;20061;-77
2022/12/14 09:50:38;;;;;;;5.00;3.50;;;3.60;99.90;;;;;;5097196;28;20031;-81
2022/12/14 09:53:06;;;;;;;5.25;3.10;;;3.60;99.90;;;;;;5079131;28;20020;-75
2022/12/14 09:55:36;;;;;;;4.53;2.85;;;3.60;99.90;;;;;;5079284;28;20020;-74
2022/12/14 09:58:13;;;;;;;6.28;3.67;;;3.60;99.90;;;;;;5077063;28;20024;-80
2022/12/14 10:00:57;;;;;;;5.47;3.10;;;3.60;99.90;;;;;;5094443;28;20047;-79
2022/12/14 10:03:39;;;;;;;4.90;2.97;;;3.70;99.90;;;;;;5076987;28;20512;-81
2022/12/14 10:06:17;;;;;;;6.97;3.47;;;3.70;99.90;;;;;;5094920;28;20028;-82
2022/12/14 10:08:50;;;;;;;4.53;3.10;;;3.70;99.90;;;;;;5091777;28;20039;-78
2022/12/14 10:11:39;;;;;;;4.97;3.22;;;3.70;99.90;;;;;;5108443;28;20107;-76
2022/12/14 10:14:08;;;;;;;5.10;3.28;;;3.80;99.90;;;;;;5062666;28;20024;-76
2022/12/14 10:16:54;;;;;;;6.03;3.88;;;3.80;99.90;;;;;;5092893;28;20111;-78
2022/12/14 10:19:34;;;;;;;7.10;3.58;;;3.80;99.90;;;;;;5093919;28;20051;-78
2022/12/14 10:22:11;;;;;;;5.22;3.58;;;3.80;99.90;;;;;;5077631;28;20100;-79
2022/12/14 10:25:05;;;;;;;6.35;4.00;;;3.80;99.90;;;;;;5083604;28;20478;-78
2022/12/14 10:27:32;;;;;;;5.60;3.60;;;3.90;99.90;;;;;;5078598;28;20055;-77
2022/12/14 10:30:03;;;;;;;4.88;2.97;;;3.90;99.90;;;;;;5082555;28;20031;-78
2022/12/14 10:32:37;;;;;;;5.90;3.50;;;3.90;99.90;;;;;;5097109;28;20046;-78
2022/12/14 10:35:15;;;;;;;4.57;3.08;;;4.00;99.90;;;;;;5082387;28;20388;-81
2022/12/14 10:37:49;;;;;;;5.10;3.40;;;4.00;99.90;;;;;;5081430;28;20031;-84
2022/12/14 10:40:47;;;;;;;5.32;3.60;;;4.00;99.90;;;;;;5116187;28;20090;-82
2022/12/14 10:43:54;;;;;;;5.32;3.33;;;4.10;99.90;;;;;;5098936;28;20399;-77
2022/12/14 10:46:47;;;;;;;5.18;3.15;;;4.10;99.90;;;;;;5088858;28;20043;-79
2022/12/14 10:49:25;;;;;;;5.32;3.40;;;4.20;99.90;;;;;;5079737;28;20044;-77
2022/12/14 10:52:16;;;;;;;4.05;2.90;;;4.10;99.90;;;;;;5080446;28;20028;-82
2022/12/14 10:54:54;;;;;;;5.18;3.60;;;4.20;99.90;;;;;;5080905;28;20491;-82
2022/12/14 10:57:22;;;;;;;4.97;3.20;;;4.20;99.90;;;;;;5081480;28;20028;-84
2022/12/14 10:59:49;;;;;;;5.00;3.03;;;4.20;99.90;;;;;;5099388;28;20047;-74
2022/12/14 11:02:18;;;;;;;5.55;3.55;;;4.20;99.90;;;;;;5098655;28;20020;-78
2022/12/14 11:04:57;;;;;;;4.30;3.30;;;4.30;99.90;;;;;;5077460;28;20024;-85
2022/12/14 11:07:37;;;;;;;5.25;3.13;;;4.30;99.90;;;;;;5097386;28;20101;-83
2022/12/14 11:10:21;;;;;;;5.57;3.10;;;4.30;99.90;;;;;;5104564;28;20503;-86
2022/12/14 11:13:04;;;;;;;4.32;2.97;;;4.40;99.90;;;;;;5083468;28;20426;-79
2022/12/14 11:15:40;;;;;;;4.93;2.88;;;4.40;99.90;;;;;;5080947;28;20458;-82
2022/12/14 11:18:27;;;;;;;4.45;3.28;;;4.40;99.90;;;;;;5080366;28;20084;-81
2022/12/14 11:20:57;;;;;;;3.50;2.78;;;4.50;99.90;;;;;;5098928;28;20062;-76
2022/12/14 11:23:37;;;;;;;4.65;3.13;;;4.50;99.90;;;;;;5099010;28;20113;-81
2022/12/14 11:26:12;;;;;;;4.20;2.60;;;4.50;99.90;;;;;;5098759;28;20032;-81
2022/12/14 11:28:47;;;;;;;4.45;2.80;;;4.50;99.90;;;;;;5098926;28;20063;-82
2022/12/14 11:31:20;;;;;;;5.05;3.10;;;4.50;99.90;;;;;;5098394;28;20058;-83
2022/12/14 11:33:48;;;;;;;4.60;2.92;;;4.60;99.90;;;;;;5098752;28;20756;-83
2022/12/14 11:36:28;;;;;;;5.00;2.92;;;4.60;99.90;;;;;;5079656;28;20020;-77
2022/12/14 11:39:00;;;;;;;4.15;2.78;;;4.60;99.90;;;;;;5098357;28;20448;-83
2022/12/14 11:41:34;;;;;;;4.07;2.83;;;4.60;99.90;;;;;;5098721;28;20024;-77
2022/12/14 11:44:23;;;;;;;4.88;2.63;;;4.60;99.90;;;;;;5078272;28;20114;-72
2022/12/14 11:46:52;;;;;;;4.22;2.85;;;4.60;99.90;;;;;;5097413;28;20028;-72
2022/12/14 11:49:37;;;;;;;4.70;2.63;;;4.60;99.90;;;;;;5098605;28;20016;-69
2022/12/14 11:52:03;;;;;;;3.50;2.22;;;4.70;99.90;;;;;;5099688;28;20020;-79
2022/12/14 11:54:33;;;;;;;3.95;2.40;;;4.70;99.90;;;;;;5098856;28;20020;-79
2022/12/14 11:57:06;;;;;;;4.15;2.70;;;4.70;99.90;;;;;;5098977;28;20028;-79
2022/12/14 12:00:00;;;;;;;4.40;2.85;;;4.70;99.90;;;;;;5098957;28;20585;-82
2022/12/14 12:02:38;;;;;;;3.17;2.47;;;4.70;99.90;;;;;;5081190;28;20078;-74
2022/12/14 12:05:21;;;;;;;4.45;2.88;;;4.70;99.90;;;;;;5099167;28;20016;-77
2022/12/14 12:07:53;;;;;;;4.13;2.75;;;4.70;99.90;;;;;;5099216;28;20077;-76
2022/12/14 12:10:25;;;;;;;3.30;2.22;;;4.70;99.90;;;;;;5089877;28;20028;-77
2022/12/14 12:12:58;;;;;;;4.28;2.63;;;4.70;99.90;;;;;;5082048;28;20050;-77
2022/12/14 12:15:40;;;;;;;;;;;4.80;99.90;;;;;;5081113;28;20028;-78
2022/12/14 12:18:31;;;;;;;3.53;2.30;;;4.80;99.90;;;;;;5080920;28;19904;-78
2022/12/14 12:21:11;;;;;;;4.10;2.35;;;4.80;99.90;;;;;;5098610;28;20480;-80
2022/12/14 12:23:43;;;;;;;3.47;2.35;;;4.80;99.90;;;;;;5080878;28;20024;-79
2022/12/14 12:26:19;;;;;;;2.85;2.03;;;4.80;99.90;;;;;;5098605;28;20036;-79
2022/12/14 12:28:54;;;;;;;3.00;1.90;;;4.80;99.90;;;;;;5080717;28;20368;-79
2022/12/14 12:31:31;;;;;;;3.08;1.95;;;4.80;99.90;;;;;;5098398;28;20028;-78
2022/12/14 12:34:08;;;;;;;2.72;2.00;;;4.70;99.90;;;;;;5080571;28;20028;-78
2022/12/14 12:36:35;;;;;;;2.90;1.80;;;4.70;99.90;;;;;;5098516;28;20494;-77
2022/12/14 12:39:14;;;;;;;3.22;2.20;;;4.80;99.90;;;;;;5098642;28;20544;-79
2022/12/14 12:42:15;;;;;;;3.22;2.03;;;4.80;99.90;;;;;;5080565;28;20384;-72
2022/12/14 12:45:01;;;;;;;3.28;2.10;;;4.90;99.90;;;;;;5098464;28;20544;-78
2022/12/14 12:47:33;;;;;;;2.08;1.52;;;4.90;99.90;;;;;;5095159;28;20027;-78
2022/12/14 12:50:02;;;;;;;2.75;2.15;;;4.80;99.90;;;;;;5098248;28;20021;-78
2022/12/14 12:52:34;;;;;;;4.10;2.22;;;4.80;99.90;;;;;;5077827;28;20085;-77
2022/12/14 12:55:21;;;;;;;2.63;1.70;;;4.80;99.90;;;;;;5101718;28;20035;-77
2022/12/14 12:57:51;;;;;;;3.28;2.10;;;4.90;99.90;;;;;;5091559;28;20119;-77
2022/12/14 13:00:20;;;;;;;3.70;2.13;;;4.90;99.90;;;;;;5096698;28;20119;-76
2022/12/14 13:02:58;;;;;;;3.08;1.98;;;4.80;99.90;;;;;;5095472;28;20081;-76
2022/12/14 13:05:26;;;;;;;4.00;2.00;;;4.80;99.90;;;;;;5097979;28;20028;-76
2022/12/14 13:08:05;;;;;;;4.03;2.40;;;4.70;99.90;;;;;;5097682;28;20094;-77
2022/12/14 13:10:36;;;;;;;3.22;2.00;;;4.70;99.90;;;;;;5106175;28;20012;-76
2022/12/14 13:13:19;;;;;;;4.82;2.20;;;4.70;99.90;;;;;;5095775;28;20050;-76
2022/12/14 13:15:45;;;;;;;;;;;4.60;99.90;;;;;;5097234;28;20476;-75
2022/12/14 13:18:28;;;;;;;2.70;1.70;;;4.50;99.90;;;;;;5096983;28;19970;-70
2022/12/14 13:20:55;;;;;;;2.88;1.80;;;4.50;99.90;;;;;;5097216;28;20028;-70
2022/12/14 13:23:24;;;;;;;2.40;1.60;;;4.40;99.90;;;;;;5095688;28;20115;-79
2022/12/14 13:26:08;;;;;;;2.85;2.08;;;4.50;99.90;;;;;;5077023;28;20031;-77
2022/12/14 13:28:52;;;;;;;3.30;2.15;;;4.50;99.90;;;;;;5096529;28;20031;-77
2022/12/14 13:31:51;;;;;;;2.70;1.98;;;4.40;99.90;;;;;;5078989;28;20488;-77
2022/12/14 13:34:56;;;;;;;3.45;2.28;;;4.40;99.90;;;;;;5075590;28;20518;-75
2022/12/14 13:37:43;;;;;;;3.20;2.08;;;4.30;99.90;;;;;;5045486;28;20100;-84
2022/12/14 13:40:40;;;;;;;3.90;2.50;;;4.30;99.90;;;;;;5040055;28;20025;-80